sensor_id;sensor_type;location;lat;lon;timestamp;P1;durP1;ratioP1;P2;durP2;ratioP2
41436;SDS011;27178;49.460;10.850;2023-01-06T00:01:25;7.40;;;3.13;;
41436;SDS011;27178;49.460;10.850;2023-01-06T00:06:44;5.50;;;2.58;;
41436;SDS011;27178;49.460;10.850;2023-01-06T00:09:13;5.40;;;2.80;;
41436;SDS011;27178;49.460;10.850;2023-01-06T00:11:41;3.95;;;2.35;;
41436;SDS011;27178;49.460;10.850;2023-01-06T00:14:09;5.32;;;2.95;;
41436;SDS011;27178;49.460;10.850;2023-01-06T00:16:38;6.50;;;2.75;;
41436;SDS011;27178;49.460;10.850;2023-01-06T00:19:08;5.47;;;2.55;;
41436;SDS011;27178;49.460;10.850;2023-01-06T00:21:39;4.28;;;2.10;;
41436;SDS011;27178;49.460;10.850;2023-01-06T00:24:08;6.15;;;2.90;;
41436;SDS011;27178;49.460;10.850;2023-01-06T00:26:37;7.05;;;3.28;;
41436;SDS011;27178;49.460;10.850;2023-01-06T00:29:05;3.73;;;2.50;;
41436;SDS011;27178;49.460;10.850;2023-01-06T00:31:36;5.25;;;2.95;;
41436;SDS011;27178;49.460;10.850;2023-01-06T00:34:05;4.22;;;2.60;;
41436;SDS011;27178;49.460;10.850;2023-01-06T00:36:33;4.88;;;2.85;;
41436;SDS011;27178;49.460;10.850;2023-01-06T00:39:03;4.70;;;2.40;;
41436;SDS011;27178;49.460;10.850;2023-01-06T00:41:31;8.65;;;3.28;;
41436;SDS011;27178;49.460;10.850;2023-01-06T00:44:18;6.55;;;3.00;;
41436;SDS011;27178;49.460;10.850;2023-01-06T00:46:46;4.50;;;2.97;;
41436;SDS011;27178;49.460;10.850;2023-01-06T00:49:14;3.00;;;2.50;;
41436;SDS011;27178;49.460;10.850;2023-01-06T00:51:42;3.90;;;2.87;;
41436;SDS011;27178;49.460;10.850;2023-01-06T00:54:12;5.28;;;2.60;;
41436;SDS011;27178;49.460;10.850;2023-01-06T00:56:42;4.93;;;2.55;;
41436;SDS011;27178;49.460;10.850;2023-01-06T00:59:12;3.97;;;2.75;;
41436;SDS011;27178;49.460;10.850;2023-01-06T01:01:42;4.05;;;2.50;;
41436;SDS011;27178;49.460;10.850;2023-01-06T01:04:12;4.65;;;2.65;;
41436;SDS011;27178;49.460;10.850;2023-01-06T01:06:41;5.00;;;2.70;;
41436;SDS011;27178;49.460;10.850;2023-01-06T01:09:13;4.88;;;3.08;;
41436;SDS011;27178;49.460;10.850;2023-01-06T01:11:43;4.93;;;2.60;;
41436;SDS011;27178;49.460;10.850;2023-01-06T01:14:29;4.28;;;2.90;;
41436;SDS011;27178;49.460;10.850;2023-01-06T01:16:58;3.92;;;2.33;;
41436;SDS011;27178;49.460;10.850;2023-01-06T01:19:26;4.00;;;2.90;;
41436;SDS011;27178;49.460;10.850;2023-01-06T01:21:55;4.53;;;2.47;;
41436;SDS011;27178;49.460;10.850;2023-01-06T01:24:25;4.75;;;2.65;;
41436;SDS011;27178;49.460;10.850;2023-01-06T01:26:54;5.43;;;2.78;;
41436;SDS011;27178;49.460;10.850;2023-01-06T01:29:22;5.28;;;2.80;;
41436;SDS011;27178;49.460;10.850;2023-01-06T01:31:50;4.00;;;2.85;;
41436;SDS011;27178;49.460;10.850;2023-01-06T01:34:19;5.10;;;2.63;;
41436;SDS011;27178;49.460;10.850;2023-01-06T01:36:49;3.55;;;2.20;;
41436;SDS011;27178;49.460;10.850;2023-01-06T01:39:19;4.30;;;2.70;;
41436;SDS011;27178;49.460;10.850;2023-01-06T01:41:51;5.75;;;2.70;;
41436;SDS011;27178;49.460;10.850;2023-01-06T01:47:23;5.03;;;2.93;;
41436;SDS011;27178;49.460;10.850;2023-01-06T01:49:57;4.23;;;2.23;;
41436;SDS011;27178;49.460;10.850;2023-01-06T01:52:29;5.65;;;2.95;;
41436;SDS011;27178;49.460;10.850;2023-01-06T01:55:00;4.82;;;2.70;;
41436;SDS011;27178;49.460;10.850;2023-01-06T01:57:32;5.50;;;2.83;;
41436;SDS011;27178;49.460;10.850;2023-01-06T02:00:05;3.97;;;2.70;;
41436;SDS011;27178;49.460;10.850;2023-01-06T02:02:35;3.47;;;2.95;;
41436;SDS011;27178;49.460;10.850;2023-01-06T02:05:04;2.75;;;2.53;;
41436;SDS011;27178;49.460;10.850;2023-01-06T02:07:34;2.92;;;2.40;;
41436;SDS011;27178;49.460;10.850;2023-01-06T02:10:04;3.58;;;2.47;;
41436;SDS011;27178;49.460;10.850;2023-01-06T02:12:39;3.53;;;2.67;;
41436;SDS011;27178;49.460;10.850;2023-01-06T02:15:15;3.17;;;2.30;;
41436;SDS011;27178;49.460;10.850;2023-01-06T02:21:02;3.85;;;2.47;;
41436;SDS011;27178;49.460;10.850;2023-01-06T02:23:55;2.40;;;2.20;;
41436;SDS011;27178;49.460;10.850;2023-01-06T02:33:18;5.32;;;2.60;;
41436;SDS011;27178;49.460;10.850;2023-01-06T02:35:56;4.03;;;2.58;;
41436;SDS011;27178;49.460;10.850;2023-01-06T02:38:43;4.07;;;2.92;;
41436;SDS011;27178;49.460;10.850;2023-01-06T02:41:27;2.33;;;2.10;;
41436;SDS011;27178;49.460;10.850;2023-01-06T02:44:00;3.08;;;2.25;;
41436;SDS011;27178;49.460;10.850;2023-01-06T02:46:41;3.03;;;2.28;;
41436;SDS011;27178;49.460;10.850;2023-01-06T02:49:23;3.63;;;2.60;;
41436;SDS011;27178;49.460;10.850;2023-01-06T02:51:57;3.05;;;2.30;;
41436;SDS011;27178;49.460;10.850;2023-01-06T02:54:31;3.10;;;2.33;;
41436;SDS011;27178;49.460;10.850;2023-01-06T02:57:10;5.05;;;2.63;;
41436;SDS011;27178;49.460;10.850;2023-01-06T02:59:44;2.38;;;2.00;;
41436;SDS011;27178;49.460;10.850;2023-01-06T03:02:17;3.55;;;2.13;;
41436;SDS011;27178;49.460;10.850;2023-01-06T03:04:48;3.08;;;2.33;;
41436;SDS011;27178;49.460;10.850;2023-01-06T03:07:18;5.22;;;3.05;;
41436;SDS011;27178;49.460;10.850;2023-01-06T03:09:49;3.38;;;2.40;;
41436;SDS011;27178;49.460;10.850;2023-01-06T03:12:21;4.18;;;2.58;;
41436;SDS011;27178;49.460;10.850;2023-01-06T03:14:54;2.95;;;2.63;;
41436;SDS011;27178;49.460;10.850;2023-01-06T03:17:23;3.72;;;3.00;;
41436;SDS011;27178;49.460;10.850;2023-01-06T03:19:53;3.75;;;2.55;;
41436;SDS011;27178;49.460;10.850;2023-01-06T03:22:22;2.25;;;2.05;;
41436;SDS011;27178;49.460;10.850;2023-01-06T03:24:51;3.28;;;2.45;;
41436;SDS011;27178;49.460;10.850;2023-01-06T03:27:21;3.38;;;2.30;;
41436;SDS011;27178;49.460;10.850;2023-01-06T03:29:52;3.15;;;2.35;;
41436;SDS011;27178;49.460;10.850;2023-01-06T03:32:21;2.90;;;2.28;;
41436;SDS011;27178;49.460;10.850;2023-01-06T03:34:59;2.70;;;2.00;;
41436;SDS011;27178;49.460;10.850;2023-01-06T03:37:36;2.63;;;2.15;;
41436;SDS011;27178;49.460;10.850;2023-01-06T03:40:15;2.72;;;2.53;;
41436;SDS011;27178;49.460;10.850;2023-01-06T03:42:52;2.00;;;1.80;;
41436;SDS011;27178;49.460;10.850;2023-01-06T03:45:40;2.50;;;2.08;;
41436;SDS011;27178;49.460;10.850;2023-01-06T03:48:26;3.05;;;2.15;;
41436;SDS011;27178;49.460;10.850;2023-01-06T03:51:03;3.03;;;2.13;;
41436;SDS011;27178;49.460;10.850;2023-01-06T03:53:37;2.17;;;1.98;;
41436;SDS011;27178;49.460;10.850;2023-01-06T03:56:13;2.65;;;2.35;;
41436;SDS011;27178;49.460;10.850;2023-01-06T03:58:47;2.95;;;2.00;;
41436;SDS011;27178;49.460;10.850;2023-01-06T04:01:21;2.78;;;1.95;;
41436;SDS011;27178;49.460;10.850;2023-01-06T04:03:52;2.85;;;2.20;;
41436;SDS011;27178;49.460;10.850;2023-01-06T04:06:22;2.05;;;1.80;;
41436;SDS011;27178;49.460;10.850;2023-01-06T04:08:51;2.20;;;2.00;;
41436;SDS011;27178;49.460;10.850;2023-01-06T04:11:19;2.63;;;2.30;;
41436;SDS011;27178;49.460;10.850;2023-01-06T04:14:05;1.90;;;1.80;;
41436;SDS011;27178;49.460;10.850;2023-01-06T04:16:33;2.28;;;2.05;;
41436;SDS011;27178;49.460;10.850;2023-01-06T04:19:02;1.80;;;1.70;;
41436;SDS011;27178;49.460;10.850;2023-01-06T04:21:32;1.98;;;1.83;;
41436;SDS011;27178;49.460;10.850;2023-01-06T04:24:01;2.22;;;2.03;;
41436;SDS011;27178;49.460;10.850;2023-01-06T04:26:29;2.00;;;1.77;;
41436;SDS011;27178;49.460;10.850;2023-01-06T04:28:59;2.58;;;2.35;;
41436;SDS011;27178;49.460;10.850;2023-01-06T04:31:28;2.22;;;2.03;;
41436;SDS011;27178;49.460;10.850;2023-01-06T04:33:56;2.30;;;2.10;;
41436;SDS011;27178;49.460;10.850;2023-01-06T04:36:25;2.25;;;1.85;;
41436;SDS011;27178;49.460;10.850;2023-01-06T04:38:55;2.92;;;1.98;;
41436;SDS011;27178;49.460;10.850;2023-01-06T04:41:23;2.00;;;1.85;;
41436;SDS011;27178;49.460;10.850;2023-01-06T04:43:52;2.65;;;2.15;;
41436;SDS011;27178;49.460;10.850;2023-01-06T04:46:23;5.22;;;1.92;;
41436;SDS011;27178;49.460;10.850;2023-01-06T04:48:51;2.15;;;1.95;;
41436;SDS011;27178;49.460;10.850;2023-01-06T04:51:19;1.70;;;1.60;;
41436;SDS011;27178;49.460;10.850;2023-01-06T04:53:48;2.20;;;1.92;;
41436;SDS011;27178;49.460;10.850;2023-01-06T04:56:18;2.35;;;1.98;;
41436;SDS011;27178;49.460;10.850;2023-01-06T04:58:46;1.80;;;1.70;;
41436;SDS011;27178;49.460;10.850;2023-01-06T05:01:14;1.60;;;1.50;;
41436;SDS011;27178;49.460;10.850;2023-01-06T05:03:43;1.70;;;1.60;;
41436;SDS011;27178;49.460;10.850;2023-01-06T05:06:12;1.85;;;1.75;;
41436;SDS011;27178;49.460;10.850;2023-01-06T05:08:40;3.63;;;1.80;;
41436;SDS011;27178;49.460;10.850;2023-01-06T05:11:11;1.73;;;1.55;;
41436;SDS011;27178;49.460;10.850;2023-01-06T05:13:41;2.13;;;1.95;;
41436;SDS011;27178;49.460;10.850;2023-01-06T05:16:10;2.00;;;1.80;;
41436;SDS011;27178;49.460;10.850;2023-01-06T05:18:40;1.90;;;1.80;;
41436;SDS011;27178;49.460;10.850;2023-01-06T05:21:08;2.45;;;1.75;;
41436;SDS011;27178;49.460;10.850;2023-01-06T05:23:37;3.50;;;1.70;;
41436;SDS011;27178;49.460;10.850;2023-01-06T05:26:06;1.60;;;1.50;;
41436;SDS011;27178;49.460;10.850;2023-01-06T05:28:36;1.42;;;1.33;;
41436;SDS011;27178;49.460;10.850;2023-01-06T05:31:07;1.70;;;1.60;;
41436;SDS011;27178;49.460;10.850;2023-01-06T05:33:37;1.58;;;1.48;;
41436;SDS011;27178;49.460;10.850;2023-01-06T05:36:07;1.92;;;1.83;;
41436;SDS011;27178;49.460;10.850;2023-01-06T05:38:39;1.60;;;1.42;;
41436;SDS011;27178;49.460;10.850;2023-01-06T05:41:08;2.17;;;1.55;;
41436;SDS011;27178;49.460;10.850;2023-01-06T05:43:37;1.90;;;1.50;;
41436;SDS011;27178;49.460;10.850;2023-01-06T05:46:07;1.60;;;1.50;;
41436;SDS011;27178;49.460;10.850;2023-01-06T05:48:37;1.65;;;1.50;;
41436;SDS011;27178;49.460;10.850;2023-01-06T05:51:06;1.45;;;1.30;;
41436;SDS011;27178;49.460;10.850;2023-01-06T05:53:37;2.03;;;1.38;;
41436;SDS011;27178;49.460;10.850;2023-01-06T05:56:08;1.20;;;1.15;;
41436;SDS011;27178;49.460;10.850;2023-01-06T05:58:38;1.60;;;1.50;;
41436;SDS011;27178;49.460;10.850;2023-01-06T06:01:13;1.58;;;1.48;;
41436;SDS011;27178;49.460;10.850;2023-01-06T06:03:43;1.65;;;1.55;;
41436;SDS011;27178;49.460;10.850;2023-01-06T06:06:12;1.67;;;1.58;;
41436;SDS011;27178;49.460;10.850;2023-01-06T06:08:40;2.72;;;2.47;;
41436;SDS011;27178;49.460;10.850;2023-01-06T06:11:09;2.40;;;2.20;;
41436;SDS011;27178;49.460;10.850;2023-01-06T06:13:38;2.28;;;1.67;;
41436;SDS011;27178;49.460;10.850;2023-01-06T06:16:14;1.83;;;1.73;;
41436;SDS011;27178;49.460;10.850;2023-01-06T06:18:46;1.60;;;1.50;;
41436;SDS011;27178;49.460;10.850;2023-01-06T06:21:16;1.65;;;1.30;;
41436;SDS011;27178;49.460;10.850;2023-01-06T06:23:47;1.63;;;1.52;;
41436;SDS011;27178;49.460;10.850;2023-01-06T06:26:15;1.45;;;1.30;;
41436;SDS011;27178;49.460;10.850;2023-01-06T06:28:44;1.33;;;1.23;;
41436;SDS011;27178;49.460;10.850;2023-01-06T06:31:14;1.73;;;1.50;;
41436;SDS011;27178;49.460;10.850;2023-01-06T06:33:44;1.70;;;1.60;;
41436;SDS011;27178;49.460;10.850;2023-01-06T06:36:15;1.40;;;1.20;;
41436;SDS011;27178;49.460;10.850;2023-01-06T06:38:45;1.65;;;1.55;;
41436;SDS011;27178;49.460;10.850;2023-01-06T06:41:14;2.88;;;2.60;;
41436;SDS011;27178;49.460;10.850;2023-01-06T06:43:43;3.22;;;2.90;;
41436;SDS011;27178;49.460;10.850;2023-01-06T06:46:11;5.75;;;5.18;;
41436;SDS011;27178;49.460;10.850;2023-01-06T06:48:41;4.43;;;4.03;;
41436;SDS011;27178;49.460;10.850;2023-01-06T06:51:11;5.03;;;4.50;;
41436;SDS011;27178;49.460;10.850;2023-01-06T06:53:42;2.58;;;2.38;;
41436;SDS011;27178;49.460;10.850;2023-01-06T06:56:11;2.33;;;2.13;;
41436;SDS011;27178;49.460;10.850;2023-01-06T06:58:40;1.98;;;1.88;;
41436;SDS011;27178;49.460;10.850;2023-01-06T07:01:10;1.83;;;1.70;;
41436;SDS011;27178;49.460;10.850;2023-01-06T07:03:41;2.78;;;2.58;;
41436;SDS011;27178;49.460;10.850;2023-01-06T07:06:10;1.95;;;1.85;;
41436;SDS011;27178;49.460;10.850;2023-01-06T07:08:41;1.60;;;1.50;;
41436;SDS011;27178;49.460;10.850;2023-01-06T07:11:10;3.60;;;1.80;;
41436;SDS011;27178;49.460;10.850;2023-01-06T07:13:39;1.77;;;1.67;;
41436;SDS011;27178;49.460;10.850;2023-01-06T07:16:07;3.03;;;1.90;;
41436;SDS011;27178;49.460;10.850;2023-01-06T07:18:36;1.95;;;1.85;;
41436;SDS011;27178;49.460;10.850;2023-01-06T07:21:06;2.90;;;2.60;;
41436;SDS011;27178;49.460;10.850;2023-01-06T07:23:35;2.47;;;2.28;;
41436;SDS011;27178;49.460;10.850;2023-01-06T07:26:03;2.13;;;1.90;;
41436;SDS011;27178;49.460;10.850;2023-01-06T07:28:32;3.00;;;1.95;;
41436;SDS011;27178;49.460;10.850;2023-01-06T07:31:00;1.92;;;1.77;;
41436;SDS011;27178;49.460;10.850;2023-01-06T07:33:29;1.77;;;1.67;;
41436;SDS011;27178;49.460;10.850;2023-01-06T07:35:57;1.73;;;1.63;;
41436;SDS011;27178;49.460;10.850;2023-01-06T07:38:27;1.60;;;1.50;;
41436;SDS011;27178;49.460;10.850;2023-01-06T07:40:57;2.28;;;2.00;;
41436;SDS011;27178;49.460;10.850;2023-01-06T07:43:26;1.55;;;1.45;;
41436;SDS011;27178;49.460;10.850;2023-01-06T07:45:55;1.58;;;1.48;;
41436;SDS011;27178;49.460;10.850;2023-01-06T07:48:23;3.28;;;2.03;;
41436;SDS011;27178;49.460;10.850;2023-01-06T07:50:52;2.15;;;2.05;;
41436;SDS011;27178;49.460;10.850;2023-01-06T07:53:21;1.85;;;1.75;;
41436;SDS011;27178;49.460;10.850;2023-01-06T07:55:51;2.75;;;2.08;;
41436;SDS011;27178;49.460;10.850;2023-01-06T07:58:20;1.77;;;1.67;;
41436;SDS011;27178;49.460;10.850;2023-01-06T08:00:50;2.60;;;1.90;;
41436;SDS011;27178;49.460;10.850;2023-01-06T08:03:19;1.95;;;1.63;;
41436;SDS011;27178;49.460;10.850;2023-01-06T08:05:47;1.58;;;1.48;;
41436;SDS011;27178;49.460;10.850;2023-01-06T08:08:16;1.98;;;1.88;;
41436;SDS011;27178;49.460;10.850;2023-01-06T08:10:44;1.60;;;1.50;;
41436;SDS011;27178;49.460;10.850;2023-01-06T08:13:14;2.50;;;1.40;;
41436;SDS011;27178;49.460;10.850;2023-01-06T08:15:45;2.17;;;1.58;;
41436;SDS011;27178;49.460;10.850;2023-01-06T08:18:17;1.65;;;1.55;;
41436;SDS011;27178;49.460;10.850;2023-01-06T08:20:45;1.67;;;1.42;;
41436;SDS011;27178;49.460;10.850;2023-01-06T08:23:14;1.58;;;1.48;;
41436;SDS011;27178;49.460;10.850;2023-01-06T08:25:42;1.77;;;1.60;;
41436;SDS011;27178;49.460;10.850;2023-01-06T08:28:10;2.00;;;1.40;;
41436;SDS011;27178;49.460;10.850;2023-01-06T08:30:42;1.75;;;1.50;;
41436;SDS011;27178;49.460;10.850;2023-01-06T08:33:10;3.30;;;1.42;;
41436;SDS011;27178;49.460;10.850;2023-01-06T08:35:39;1.65;;;1.45;;
41436;SDS011;27178;49.460;10.850;2023-01-06T08:38:08;1.40;;;1.30;;
41436;SDS011;27178;49.460;10.850;2023-01-06T08:40:36;1.40;;;1.30;;
41436;SDS011;27178;49.460;10.850;2023-01-06T08:43:05;1.40;;;1.30;;
41436;SDS011;27178;49.460;10.850;2023-01-06T08:45:36;1.58;;;1.48;;
41436;SDS011;27178;49.460;10.850;2023-01-06T08:48:06;3.03;;;1.33;;
41436;SDS011;27178;49.460;10.850;2023-01-06T08:50:36;1.60;;;1.50;;
41436;SDS011;27178;49.460;10.850;2023-01-06T08:53:05;1.38;;;1.30;;
41436;SDS011;27178;49.460;10.850;2023-01-06T08:55:36;1.50;;;1.40;;
41436;SDS011;27178;49.460;10.850;2023-01-06T08:58:09;1.30;;;1.20;;
41436;SDS011;27178;49.460;10.850;2023-01-06T09:00:38;2.25;;;2.05;;
41436;SDS011;27178;49.460;10.850;2023-01-06T09:03:09;1.95;;;1.60;;
41436;SDS011;27178;49.460;10.850;2023-01-06T09:05:37;1.30;;;1.20;;
41436;SDS011;27178;49.460;10.850;2023-01-06T09:08:06;1.85;;;1.33;;
41436;SDS011;27178;49.460;10.850;2023-01-06T09:10:35;2.03;;;1.60;;
41436;SDS011;27178;49.460;10.850;2023-01-06T09:13:04;1.10;;;0.95;;
41436;SDS011;27178;49.460;10.850;2023-01-06T09:15:32;1.23;;;1.08;;
41436;SDS011;27178;49.460;10.850;2023-01-06T09:18:01;0.95;;;0.90;;
41436;SDS011;27178;49.460;10.850;2023-01-06T09:20:31;1.17;;;1.02;;
41436;SDS011;27178;49.460;10.850;2023-01-06T09:23:06;0.90;;;0.90;;
41436;SDS011;27178;49.460;10.850;2023-01-06T09:25:35;1.02;;;0.93;;
41436;SDS011;27178;49.460;10.850;2023-01-06T09:28:03;1.00;;;0.90;;
41436;SDS011;27178;49.460;10.850;2023-01-06T09:30:31;1.05;;;0.95;;
41436;SDS011;27178;49.460;10.850;2023-01-06T09:32:59;1.60;;;1.50;;
41436;SDS011;27178;49.460;10.850;2023-01-06T09:35:28;0.82;;;0.60;;
41436;SDS011;27178;49.460;10.850;2023-01-06T09:37:58;0.95;;;0.95;;
41436;SDS011;27178;49.460;10.850;2023-01-06T09:40:28;0.80;;;0.80;;
41436;SDS011;27178;49.460;10.850;2023-01-06T09:43:09;0.68;;;0.65;;
41436;SDS011;27178;49.460;10.850;2023-01-06T09:45:47;0.88;;;0.85;;
41436;SDS011;27178;49.460;10.850;2023-01-06T09:48:19;0.63;;;0.63;;
41436;SDS011;27178;49.460;10.850;2023-01-06T09:50:52;0.80;;;0.80;;
41436;SDS011;27178;49.460;10.850;2023-01-06T09:53:25;2.00;;;0.85;;
41436;SDS011;27178;49.460;10.850;2023-01-06T09:55:57;0.85;;;0.85;;
41436;SDS011;27178;49.460;10.850;2023-01-06T09:58:27;0.60;;;0.60;;
41436;SDS011;27178;49.460;10.850;2023-01-06T10:01:01;1.02;;;0.63;;
41436;SDS011;27178;49.460;10.850;2023-01-06T10:03:34;1.10;;;0.85;;
41436;SDS011;27178;49.460;10.850;2023-01-06T10:06:09;0.60;;;0.60;;
41436;SDS011;27178;49.460;10.850;2023-01-06T10:08:56;0.60;;;0.60;;
41436;SDS011;27178;49.460;10.850;2023-01-06T10:11:33;0.80;;;0.80;;
41436;SDS011;27178;49.460;10.850;2023-01-06T10:14:16;1.13;;;0.60;;
41436;SDS011;27178;49.460;10.850;2023-01-06T10:16:54;0.60;;;0.60;;
41436;SDS011;27178;49.460;10.850;2023-01-06T10:19:42;0.40;;;0.40;;
41436;SDS011;27178;49.460;10.850;2023-01-06T10:22:21;0.57;;;0.57;;
41436;SDS011;27178;49.460;10.850;2023-01-06T10:24:59;0.55;;;0.55;;
41436;SDS011;27178;49.460;10.850;2023-01-06T10:27:34;0.60;;;0.60;;
41436;SDS011;27178;49.460;10.850;2023-01-06T10:30:04;1.27;;;1.10;;
41436;SDS011;27178;49.460;10.850;2023-01-06T10:32:43;0.70;;;0.70;;
41436;SDS011;27178;49.460;10.850;2023-01-06T10:35:16;0.90;;;0.90;;
41436;SDS011;27178;49.460;10.850;2023-01-06T10:37:46;0.60;;;0.57;;
41436;SDS011;27178;49.460;10.850;2023-01-06T10:40:38;0.77;;;0.60;;
41436;SDS011;27178;49.460;10.850;2023-01-06T10:43:09;0.93;;;0.93;;
41436;SDS011;27178;49.460;10.850;2023-01-06T10:45:40;0.50;;;0.50;;
41436;SDS011;27178;49.460;10.850;2023-01-06T10:48:10;1.00;;;0.80;;
41436;SDS011;27178;49.460;10.850;2023-01-06T10:50:42;0.88;;;0.80;;
41436;SDS011;27178;49.460;10.850;2023-01-06T10:53:10;0.70;;;0.70;;
41436;SDS011;27178;49.460;10.850;2023-01-06T10:55:43;0.80;;;0.80;;
41436;SDS011;27178;49.460;10.850;2023-01-06T10:58:20;0.57;;;0.57;;
41436;SDS011;27178;49.460;10.850;2023-01-06T11:00:58;0.82;;;0.70;;
41436;SDS011;27178;49.460;10.850;2023-01-06T11:03:28;2.42;;;0.50;;
41436;SDS011;27178;49.460;10.850;2023-01-06T11:06:01;1.15;;;0.93;;
41436;SDS011;27178;49.460;10.850;2023-01-06T11:08:33;0.60;;;0.60;;
41436;SDS011;27178;49.460;10.850;2023-01-06T11:11:11;0.70;;;0.57;;
41436;SDS011;27178;49.460;10.850;2023-01-06T11:13:53;0.55;;;0.55;;
41436;SDS011;27178;49.460;10.850;2023-01-06T11:16:24;0.80;;;0.80;;
41436;SDS011;27178;49.460;10.850;2023-01-06T11:18:55;0.55;;;0.35;;
41436;SDS011;27178;49.460;10.850;2023-01-06T11:21:35;0.55;;;0.55;;
41436;SDS011;27178;49.460;10.850;2023-01-06T11:24:09;1.05;;;0.70;;
41436;SDS011;27178;49.460;10.850;2023-01-06T11:26:45;0.77;;;0.77;;
41436;SDS011;27178;49.460;10.850;2023-01-06T11:29:23;0.80;;;0.80;;
41436;SDS011;27178;49.460;10.850;2023-01-06T11:31:53;0.75;;;0.75;;
41436;SDS011;27178;49.460;10.850;2023-01-06T11:34:23;1.42;;;0.90;;
41436;SDS011;27178;49.460;10.850;2023-01-06T11:36:54;1.08;;;0.60;;
41436;SDS011;27178;49.460;10.850;2023-01-06T11:39:28;0.95;;;0.90;;
41436;SDS011;27178;49.460;10.850;2023-01-06T11:42:09;0.80;;;0.80;;
41436;SDS011;27178;49.460;10.850;2023-01-06T11:44:40;0.75;;;0.73;;
41436;SDS011;27178;49.460;10.850;2023-01-06T11:47:11;0.65;;;0.65;;
41436;SDS011;27178;49.460;10.850;2023-01-06T11:49:45;0.85;;;0.60;;
41436;SDS011;27178;49.460;10.850;2023-01-06T11:52:19;0.50;;;0.50;;
41436;SDS011;27178;49.460;10.850;2023-01-06T11:54:57;1.17;;;0.60;;
41436;SDS011;27178;49.460;10.850;2023-01-06T11:57:30;0.77;;;0.68;;
41436;SDS011;27178;49.460;10.850;2023-01-06T12:00:11;0.80;;;0.80;;
41436;SDS011;27178;49.460;10.850;2023-01-06T12:03:01;0.98;;;0.88;;
41436;SDS011;27178;49.460;10.850;2023-01-06T12:05:37;0.70;;;0.70;;
41436;SDS011;27178;49.460;10.850;2023-01-06T12:08:14;1.15;;;0.68;;
41436;SDS011;27178;49.460;10.850;2023-01-06T12:10:48;0.60;;;0.60;;
41436;SDS011;27178;49.460;10.850;2023-01-06T12:13:23;0.70;;;0.70;;
41436;SDS011;27178;49.460;10.850;2023-01-06T12:15:55;0.60;;;0.60;;
41436;SDS011;27178;49.460;10.850;2023-01-06T12:18:28;0.88;;;0.68;;
41436;SDS011;27178;49.460;10.850;2023-01-06T12:20:59;1.60;;;0.82;;
41436;SDS011;27178;49.460;10.850;2023-01-06T12:23:30;0.82;;;0.80;;
41436;SDS011;27178;49.460;10.850;2023-01-06T12:26:02;1.13;;;0.77;;
41436;SDS011;27178;49.460;10.850;2023-01-06T12:28:38;0.68;;;0.68;;
41436;SDS011;27178;49.460;10.850;2023-01-06T12:31:09;0.80;;;0.80;;
41436;SDS011;27178;49.460;10.850;2023-01-06T12:33:43;1.23;;;0.88;;
41436;SDS011;27178;49.460;10.850;2023-01-06T12:36:17;0.75;;;0.70;;
41436;SDS011;27178;49.460;10.850;2023-01-06T12:38:55;0.80;;;0.80;;
41436;SDS011;27178;49.460;10.850;2023-01-06T12:41:25;1.15;;;0.88;;
41436;SDS011;27178;49.460;10.850;2023-01-06T12:44:04;0.60;;;0.60;;
41436;SDS011;27178;49.460;10.850;2023-01-06T12:46:40;0.75;;;0.50;;
41436;SDS011;27178;49.460;10.850;2023-01-06T12:49:17;0.63;;;0.63;;
41436;SDS011;27178;49.460;10.850;2023-01-06T12:51:50;0.95;;;0.63;;
41436;SDS011;27178;49.460;10.850;2023-01-06T12:54:22;0.75;;;0.70;;
41436;SDS011;27178;49.460;10.850;2023-01-06T12:56:59;2.00;;;0.80;;
41436;SDS011;27178;49.460;10.850;2023-01-06T12:59:47;1.02;;;0.70;;
41436;SDS011;27178;49.460;10.850;2023-01-06T13:02:42;0.63;;;0.63;;
41436;SDS011;27178;49.460;10.850;2023-01-06T13:05:30;0.45;;;0.45;;
41436;SDS011;27178;49.460;10.850;2023-01-06T13:08:20;0.57;;;0.57;;
41436;SDS011;27178;49.460;10.850;2023-01-06T13:11:02;1.88;;;0.55;;
41436;SDS011;27178;49.460;10.850;2023-01-06T13:13:52;0.70;;;0.70;;
41436;SDS011;27178;49.460;10.850;2023-01-06T13:16:27;0.60;;;0.60;;
41436;SDS011;27178;49.460;10.850;2023-01-06T13:19:06;0.60;;;0.60;;
41436;SDS011;27178;49.460;10.850;2023-01-06T13:21:42;0.80;;;0.65;;
41436;SDS011;27178;49.460;10.850;2023-01-06T13:24:25;0.50;;;0.50;;
41436;SDS011;27178;49.460;10.850;2023-01-06T13:27:07;0.65;;;0.65;;
41436;SDS011;27178;49.460;10.850;2023-01-06T13:30:04;0.57;;;0.57;;
41436;SDS011;27178;49.460;10.850;2023-01-06T13:33:08;0.70;;;0.70;;
41436;SDS011;27178;49.460;10.850;2023-01-06T13:35:49;0.70;;;0.63;;
41436;SDS011;27178;49.460;10.850;2023-01-06T13:38:41;1.02;;;0.80;;
41436;SDS011;27178;49.460;10.850;2023-01-06T13:41:21;1.27;;;0.80;;
41436;SDS011;27178;49.460;10.850;2023-01-06T13:43:53;0.85;;;0.70;;
41436;SDS011;27178;49.460;10.850;2023-01-06T13:46:24;1.02;;;0.50;;
41436;SDS011;27178;49.460;10.850;2023-01-06T13:48:57;0.70;;;0.70;;
41436;SDS011;27178;49.460;10.850;2023-01-06T13:51:29;1.17;;;0.82;;
41436;SDS011;27178;49.460;10.850;2023-01-06T13:54:02;0.85;;;0.70;;
41436;SDS011;27178;49.460;10.850;2023-01-06T13:56:31;0.95;;;0.55;;
41436;SDS011;27178;49.460;10.850;2023-01-06T13:59:21;0.70;;;0.63;;
41436;SDS011;27178;49.460;10.850;2023-01-06T14:01:51;1.05;;;0.52;;
41436;SDS011;27178;49.460;10.850;2023-01-06T14:07:12;0.65;;;0.65;;
41436;SDS011;27178;49.460;10.850;2023-01-06T14:09:45;1.20;;;0.73;;
41436;SDS011;27178;49.460;10.850;2023-01-06T14:12:16;0.82;;;0.60;;
41436;SDS011;27178;49.460;10.850;2023-01-06T14:14:54;0.82;;;0.50;;
41436;SDS011;27178;49.460;10.850;2023-01-06T14:17:28;0.60;;;0.60;;
41436;SDS011;27178;49.460;10.850;2023-01-06T14:20:00;0.45;;;0.43;;
41436;SDS011;27178;49.460;10.850;2023-01-06T14:22:28;1.05;;;0.80;;
41436;SDS011;27178;49.460;10.850;2023-01-06T14:24:58;0.65;;;0.65;;
41436;SDS011;27178;49.460;10.850;2023-01-06T14:30:32;0.75;;;0.75;;
41436;SDS011;27178;49.460;10.850;2023-01-06T14:33:03;0.82;;;0.70;;
41436;SDS011;27178;49.460;10.850;2023-01-06T14:35:57;1.30;;;1.10;;
41436;SDS011;27178;49.460;10.850;2023-01-06T14:38:30;1.38;;;1.27;;
41436;SDS011;27178;49.460;10.850;2023-01-06T14:41:02;1.33;;;1.23;;
41436;SDS011;27178;49.460;10.850;2023-01-06T14:43:33;2.05;;;1.00;;
41436;SDS011;27178;49.460;10.850;2023-01-06T14:46:12;1.10;;;1.00;;
41436;SDS011;27178;49.460;10.850;2023-01-06T14:48:46;1.15;;;0.80;;
41436;SDS011;27178;49.460;10.850;2023-01-06T14:51:19;0.93;;;0.93;;
41436;SDS011;27178;49.460;10.850;2023-01-06T14:53:57;1.95;;;0.63;;
41436;SDS011;27178;49.460;10.850;2023-01-06T14:56:30;0.88;;;0.73;;
41436;SDS011;27178;49.460;10.850;2023-01-06T14:59:03;2.83;;;1.00;;
41436;SDS011;27178;49.460;10.850;2023-01-06T15:01:37;1.00;;;1.00;;
41436;SDS011;27178;49.460;10.850;2023-01-06T15:04:18;0.57;;;0.57;;
41436;SDS011;27178;49.460;10.850;2023-01-06T15:07:02;1.52;;;0.88;;
41436;SDS011;27178;49.460;10.850;2023-01-06T15:09:42;0.60;;;0.60;;
41436;SDS011;27178;49.460;10.850;2023-01-06T15:12:23;1.75;;;1.60;;
41436;SDS011;27178;49.460;10.850;2023-01-06T15:14:53;1.40;;;1.20;;
41436;SDS011;27178;49.460;10.850;2023-01-06T15:17:22;1.10;;;1.00;;
41436;SDS011;27178;49.460;10.850;2023-01-06T15:19:50;1.85;;;1.75;;
41436;SDS011;27178;49.460;10.850;2023-01-06T15:22:21;1.83;;;1.73;;
41436;SDS011;27178;49.460;10.850;2023-01-06T15:24:51;1.50;;;1.40;;
41436;SDS011;27178;49.460;10.850;2023-01-06T15:27:20;1.23;;;1.13;;